Calistoga, CA

4:28 AM PDT on March 30, 2015 (GMT -0700)
Petaluma | | Change Station
CLOSE
Current Station
Airport
Location: Petaluma,
Elevation: 89 ft
Nearby Weather Stations

Elev 89 ft 38.26 °N, 122.61 °W | Updated 13 minutes ago

Clear
Clear
45 °F
Feels Like 45 °F
N
0
Wind Variable Wind from North

Today
High -- | Low -- °F
--% Chance of Precip.
Yesterday
High -- | Low -- °F
Precip. -- in
6:58 AM 7:31 PM
Waxing Gibbous, 79% visible
Pressure 30.03 in
Visibility 10.0 miles
Clouds Mostly Cloudy 300 ft
Overcast 1800 ft
Dew Point 43 °F
Humidity 93%
Rainfall 0.00 in
Snow Depth Not available.
UV 0 out of 12
Pollen 10.10 out of 12
Air Quality Not available.
Flu Activity Not available.
METAR KO69 301115Z AUTO 00000KT 10SM BKN003 OVC018 07/06 A3003 RMK AO1

More Conditions Fewer Conditions

Pressure 30.03 in
Visibility 10.0 miles
Clouds Mostly Cloudy 300 ft
Overcast 1800 ft
Dew Point 43 °F
Humidity 93%
Rainfall 0.00 in
Snow Depth Not available.
UV 0 out of 12
Pollen 10.10 out of 12
Air Quality Not available.
Flu Activity Not available.
METAR KO69 301115Z AUTO 00000KT 10SM BKN003 OVC018 07/06 A3003 RMK AO1

More Conditions Fewer Conditions

10-Day Weather Forecast

Almanac

Astronomy

Mar. 30, 2015 Rise Set
Actual Time
Civil Twilight
Nautical Twilight
Astronomical Twilight
Moon
Length of Visible Light
Length of Day
Tomorrow will be .
, % of the Moon is Illuminated

Today's Extremes

State Highs State Lows

Community

WunderPhotos

Upload Photos

1,809,457 photos uploaded!

WunderBlogs® & News

Nearby

Air Quality

  Air Quality AQ Index Pollutant
Not available.

Snow Depth

Station Depth Elevation

Earthquake Activity

City Distance Mag. Time & Date
Minimum magnitude displayed is 2.5.

Coastal Water Temperatures

Place Temperature

Stations

Nearby Weather Stations

Station Location Temp. Windchill Dew Point Humidity Wind Precip. Elev Updated Type